createdAt,value
2018-05-07T00:02:10.817Z,94849.23
2018-05-07T00:04:37.496Z,94845.88
2018-05-07T00:07:05.140Z,94837.59
2018-05-07T00:09:31.778Z,94834.97
2018-05-07T00:11:58.488Z,94829.78
2018-05-07T00:14:25.057Z,94822.20
2018-05-07T00:16:51.704Z,94817.27
2018-05-07T00:19:18.389Z,94811.92
2018-05-07T00:21:45.088Z,94809.36
2018-05-07T00:24:11.725Z,94797.50
2018-05-07T00:26:38.439Z,94793.14
2018-05-07T00:29:05.050Z,94777.95
2018-05-07T00:31:31.656Z,94773.13
2018-05-07T00:33:58.299Z,94771.11
2018-05-07T00:36:24.948Z,94776.17
2018-05-07T00:38:51.618Z,94786.84
2018-05-07T00:41:18.265Z,94809.08
2018-05-07T00:43:44.934Z,94803.31
2018-05-07T00:46:11.617Z,94813.85
2018-05-07T00:48:38.277Z,94804.81
2018-05-07T00:51:04.950Z,94805.81
2018-05-07T00:53:31.647Z,94798.58
2018-05-07T00:55:58.250Z,94800.27
2018-05-07T00:58:24.924Z,94799.83
2018-05-07T01:00:51.572Z,94805.39
2018-05-07T01:03:18.176Z,94804.38
2018-05-07T01:05:44.853Z,94802.23
2018-05-07T01:08:11.494Z,94801.17
2018-05-07T01:10:38.135Z,94802.16
2018-05-07T01:13:04.847Z,94798.19
2018-05-07T01:15:31.525Z,94804.00
2018-05-07T01:17:58.162Z,94804.68
2018-05-07T01:20:24.808Z,94808.09
2018-05-07T01:22:51.487Z,94815.55
2018-05-07T01:25:18.119Z,94808.14
2018-05-07T01:27:44.838Z,94804.83
2018-05-07T01:30:11.480Z,94798.17
2018-05-07T01:32:48.431Z,94801.95
2018-05-07T01:35:15.116Z,94804.56
2018-05-07T01:37:41.713Z,94812.57
2018-05-07T01:40:08.392Z,94810.55
2018-05-07T01:42:35.025Z,94807.30
2018-05-07T01:45:01.744Z,94809.11
2018-05-07T01:47:28.347Z,94811.13
2018-05-07T01:49:55.017Z,94804.25
2018-05-07T01:52:21.627Z,94814.45
2018-05-07T01:54:48.283Z,94816.22
2018-05-07T01:57:14.926Z,94809.96
2018-05-07T01:59:41.558Z,94818.50
2018-05-07T02:02:08.271Z,94823.87
2018-05-07T02:04:34.907Z,94821.07
2018-05-07T02:07:01.541Z,94828.27
2018-05-07T02:09:28.149Z,94831.59
2018-05-07T02:11:54.855Z,94832.11
2018-05-07T02:14:21.552Z,94836.67
2018-05-07T02:16:48.149Z,94835.69
2018-05-07T02:19:14.775Z,94837.83
2018-05-07T02:21:41.484Z,94838.65
2018-05-07T02:24:08.161Z,94841.68
2018-05-07T02:26:34.805Z,94841.68
2018-05-07T02:29:01.465Z,94846.73
2018-05-07T02:31:28.114Z,94847.16
2018-05-07T02:33:54.710Z,94850.39
2018-05-07T02:36:21.377Z,94847.92
2018-05-07T02:38:48.052Z,94847.92
2018-05-07T02:41:14.686Z,94846.58
2018-05-07T02:43:41.289Z,94846.20
2018-05-07T02:46:07.950Z,94846.98
2018-05-07T02:48:34.584Z,94847.48
2018-05-07T02:51:01.195Z,94851.25
2018-05-07T02:53:27.859Z,94851.08
2018-05-07T02:55:54.510Z,94859.22
2018-05-07T02:58:21.150Z,94859.28
2018-05-07T03:00:47.784Z,94858.27
2018-05-07T03:03:14.458Z,94861.94
2018-05-07T03:05:41.102Z,94850.24
2018-05-07T03:08:07.739Z,94861.42
2018-05-07T03:10:34.373Z,94861.42
2018-05-07T03:13:01.017Z,94858.41
2018-05-07T03:15:27.623Z,94851.21
2018-05-07T03:17:54.256Z,94859.70
2018-05-07T03:20:20.917Z,94852.84
2018-05-07T03:22:47.529Z,94861.19
2018-05-07T03:25:14.164Z,94854.20
2018-05-07T03:27:40.831Z,94859.00
2018-05-07T03:30:07.431Z,94856.17
2018-05-07T03:32:34.104Z,94854.29
2018-05-07T03:35:00.747Z,94859.55
2018-05-07T03:37:27.346Z,94852.95
2018-05-07T03:39:53.983Z,94855.63
2018-05-07T03:42:20.654Z,94860.02
2018-05-07T03:44:47.286Z,94862.55
2018-05-07T03:47:13.887Z,94865.19
2018-05-07T03:49:40.525Z,94862.74
2018-05-07T03:52:07.265Z,94861.98
2018-05-07T03:54:33.900Z,94867.70
2018-05-07T03:57:00.541Z,94863.75
2018-05-07T03:59:27.181Z,94868.09
2018-05-07T04:01:53.834Z,94870.95
2018-05-07T04:04:20.439Z,94871.25
2018-05-07T04:06:47.142Z,94873.56
2018-05-07T04:09:13.803Z,94872.97
2018-05-07T04:11:40.413Z,94884.25
2018-05-07T04:14:07.084Z,94874.29
2018-05-07T04:16:33.716Z,94872.08
2018-05-07T04:19:00.351Z,94877.80
2018-05-07T04:21:26.987Z,94869.82
2018-05-07T04:23:53.611Z,94867.59
2018-05-07T04:26:20.250Z,94876.17
2018-05-07T04:28:46.884Z,94873.66
2018-05-07T04:31:13.515Z,94881.84
2018-05-07T04:33:40.243Z,94884.50
2018-05-07T04:36:06.749Z,94878.31
2018-05-07T04:38:33.394Z,94873.64
2018-05-07T04:41:00.095Z,94880.58
2018-05-07T04:43:26.733Z,94886.07
2018-05-07T04:45:53.363Z,94892.95
2018-05-07T04:48:20.018Z,94896.36
2018-05-07T04:50:46.708Z,94893.00
2018-05-07T04:53:13.333Z,94888.17
2018-05-07T04:55:39.940Z,94894.09
2018-05-07T04:58:06.616Z,94892.58
2018-05-07T05:00:33.255Z,94899.90
2018-05-07T05:02:59.876Z,94896.66
2018-05-07T05:05:26.515Z,94901.42
2018-05-07T05:07:53.112Z,94903.00
2018-05-07T05:10:19.771Z,94902.72
2018-05-07T05:12:46.415Z,94907.35
2018-05-07T05:15:13.046Z,94906.72
2018-05-07T05:17:39.680Z,94911.98
2018-05-07T05:20:06.315Z,94913.84
2018-05-07T05:22:32.956Z,94915.77
2018-05-07T05:24:59.595Z,94917.56
2018-05-07T05:27:26.230Z,94912.02
2018-05-07T05:29:52.867Z,94918.45
2018-05-07T05:32:19.513Z,94918.20
2018-05-07T05:34:46.116Z,94915.73
2018-05-07T05:37:12.770Z,94916.14
2018-05-07T05:39:39.425Z,94918.25
2018-05-07T05:42:06.023Z,94923.84
2018-05-07T05:44:32.680Z,94918.45
2018-05-07T05:46:59.315Z,94919.21
2018-05-07T05:49:25.922Z,94912.73
2018-05-07T05:51:52.587Z,94914.85
2018-05-07T05:54:19.192Z,94914.75
2018-05-07T05:56:45.841Z,94906.84
2018-05-07T05:59:12.473Z,94909.12
2018-05-07T06:01:39.107Z,94911.30
2018-05-07T06:04:05.793Z,94914.41
2018-05-07T06:06:32.422Z,94911.38
2018-05-07T06:08:59.035Z,94912.69
2018-05-07T06:11:25.653Z,94911.76
2018-05-07T06:13:52.332Z,94909.37
2018-05-07T06:16:18.923Z,94908.15
2018-05-07T06:18:45.605Z,94912.07
2018-05-07T06:21:12.236Z,94914.83
2018-05-07T06:23:38.877Z,94914.72
2018-05-07T06:26:05.469Z,94916.94
2018-05-07T06:28:32.106Z,94921.86
2018-05-07T06:30:58.741Z,94926.66
2018-05-07T06:33:25.387Z,94932.20
2018-05-07T06:35:52.014Z,94927.79
2018-05-07T06:38:18.682Z,94916.97
2018-05-07T06:40:45.321Z,94917.48
2018-05-07T06:43:14.935Z,94915.90
2018-05-07T06:45:41.673Z,94911.11
2018-05-07T06:48:08.220Z,94923.77
2018-05-07T06:50:34.832Z,94919.38
2018-05-07T06:53:01.470Z,94912.27
2018-05-07T06:55:28.134Z,94909.61
2018-05-07T06:57:54.744Z,94908.76
2018-05-07T07:00:21.416Z,94910.23
2018-05-07T07:02:48.197Z,94911.09
2018-05-07T07:05:14.694Z,94907.43
2018-05-07T07:07:41.335Z,94906.31
2018-05-07T07:10:07.937Z,94908.27
2018-05-07T07:12:35.898Z,94902.63
2018-05-07T07:15:01.218Z,94901.37
2018-05-07T07:17:27.883Z,94899.56
2018-05-07T07:19:54.482Z,94895.77
2018-05-07T07:22:21.122Z,94899.56
2018-05-07T07:24:47.834Z,94893.42
2018-05-07T07:27:14.472Z,94897.41
2018-05-07T07:29:41.065Z,94885.66
2018-05-07T07:32:07.739Z,94883.19
2018-05-07T07:34:34.345Z,94876.78
2018-05-07T07:37:01.022Z,94877.42
2018-05-07T07:39:27.699Z,94881.45
2018-05-07T07:41:54.300Z,94882.77
2018-05-07T07:44:20.893Z,94891.22
2018-05-07T07:46:47.579Z,94883.84
2018-05-07T07:49:14.217Z,94885.83
2018-05-07T07:51:40.904Z,94887.23
2018-05-07T07:54:07.538Z,94887.91
2018-05-07T07:56:34.141Z,94888.77
2018-05-07T07:59:00.785Z,94891.45
2018-05-07T08:01:27.430Z,94893.87
2018-05-07T08:03:54.102Z,94892.34
2018-05-07T08:06:20.773Z,94891.16
2018-05-07T08:08:47.459Z,94896.16
2018-05-07T08:11:14.087Z,94891.83
2018-05-07T08:13:40.687Z,94887.09
2018-05-07T08:16:07.326Z,94890.56
2018-05-07T08:18:33.991Z,94883.02
2018-05-07T08:21:00.661Z,94885.66
2018-05-07T08:23:27.256Z,94887.91
2018-05-07T08:25:53.927Z,94885.48
2018-05-07T08:28:20.555Z,94884.97
2018-05-07T08:30:47.232Z,94881.81
2018-05-07T08:33:13.842Z,94875.29
2018-05-07T08:35:40.479Z,94867.80
2018-05-07T08:38:07.116Z,94872.11
2018-05-07T08:40:33.757Z,94865.33
2018-05-07T08:43:00.391Z,94867.16
2018-05-07T08:45:27.024Z,94869.30
2018-05-07T08:47:53.668Z,94871.63
2018-05-07T08:50:20.344Z,94883.84
2018-05-07T08:52:46.994Z,94882.44
2018-05-07T08:55:13.656Z,94883.08
2018-05-07T08:57:40.256Z,94888.63
2018-05-07T09:00:06.899Z,94884.09
2018-05-07T09:02:33.536Z,94885.44
2018-05-07T09:05:00.173Z,94885.29
2018-05-07T09:07:26.846Z,94883.38
2018-05-07T09:09:53.483Z,94890.34
2018-05-07T09:12:20.120Z,94889.92
2018-05-07T09:14:46.756Z,94892.32
2018-05-07T09:17:13.359Z,94888.85
2018-05-07T09:19:40.040Z,94888.13
2018-05-07T09:22:06.672Z,94886.44
2018-05-07T09:24:33.281Z,94887.69
2018-05-07T09:26:59.949Z,94884.36
2018-05-07T09:29:26.619Z,94888.97
2018-05-07T09:31:53.219Z,94885.33
2018-05-07T09:34:19.883Z,94888.16
2018-05-07T09:36:46.530Z,94882.81
2018-05-07T09:39:13.212Z,94884.20
2018-05-07T09:41:39.831Z,94880.58
2018-05-07T09:44:06.492Z,94877.13
2018-05-07T09:46:33.102Z,94879.68
2018-05-07T09:48:59.794Z,94874.73
2018-05-07T09:51:26.371Z,94878.20
2018-05-07T09:53:52.993Z,94875.81
2018-05-07T09:56:19.691Z,94868.77
2018-05-07T09:58:46.334Z,94867.84
2018-05-07T10:01:12.963Z,94865.55
2018-05-07T10:03:39.637Z,94862.02
2018-05-07T10:06:06.256Z,94868.39
2018-05-07T10:08:32.959Z,94873.20
2018-05-07T10:10:59.562Z,94861.13
2018-05-07T10:13:26.194Z,94861.19
2018-05-07T10:15:52.916Z,94861.58
2018-05-07T10:18:19.522Z,94869.17
2018-05-07T10:20:46.174Z,94864.83
2018-05-07T10:23:12.820Z,94863.75
2018-05-07T10:25:39.486Z,94858.05
2018-05-07T10:28:06.090Z,94856.27
2018-05-07T10:30:32.749Z,94853.63
2018-05-07T10:32:59.393Z,94852.16
2018-05-07T10:35:26.044Z,94847.36
2018-05-07T10:37:52.631Z,94851.02
2018-05-07T10:40:19.348Z,94850.66
2018-05-07T10:42:46.065Z,94854.24
2018-05-07T10:45:12.648Z,94847.61
2018-05-07T10:47:39.324Z,94837.83
2018-05-07T10:50:05.936Z,94840.64
2018-05-07T10:52:32.589Z,94840.45
2018-05-07T10:54:59.257Z,94834.07
2018-05-07T10:57:25.862Z,94833.81
2018-05-07T10:59:52.503Z,94833.84
2018-05-07T11:02:19.149Z,94826.56
2018-05-07T11:04:45.855Z,94830.52
2018-05-07T11:07:12.603Z,94833.68
2018-05-07T11:09:39.346Z,94832.92
2018-05-07T11:12:05.935Z,94832.86
2018-05-07T11:14:32.588Z,94827.11
2018-05-07T11:16:59.220Z,94830.95
2018-05-07T11:19:25.858Z,94825.02
2018-05-07T11:21:52.506Z,94821.48
2018-05-07T11:24:19.173Z,94821.18
2018-05-07T11:26:45.780Z,94813.22
2018-05-07T11:29:12.453Z,94817.19
2018-05-07T11:31:39.183Z,94817.06
2018-05-07T11:34:05.821Z,94813.77
2018-05-07T11:36:32.458Z,94809.37
2018-05-07T11:38:59.108Z,94806.00
2018-05-07T11:41:25.731Z,94805.58
2018-05-07T11:43:52.369Z,94798.63
2018-05-07T11:46:19.009Z,94794.02
2018-05-07T11:48:45.685Z,94777.62
2018-05-07T11:51:12.316Z,94792.75
2018-05-07T11:53:39.029Z,94785.27
2018-05-07T11:56:05.715Z,94782.73
2018-05-07T11:58:32.366Z,94776.94
2018-05-07T12:00:59.003Z,94779.83
2018-05-07T12:03:25.641Z,94778.75
2018-05-07T12:05:52.281Z,94777.36
2018-05-07T12:08:18.915Z,94773.08
2018-05-07T12:10:45.591Z,94772.70
2018-05-07T12:13:12.250Z,94771.46
2018-05-07T12:15:38.930Z,94760.61
2018-05-07T12:18:05.528Z,94759.88
2018-05-07T12:20:32.159Z,94761.37
2018-05-07T12:22:58.835Z,94751.22
2018-05-07T12:25:25.469Z,94751.80
2018-05-07T12:27:52.109Z,94748.94
2018-05-07T12:30:20.209Z,94749.70
2018-05-07T12:32:45.352Z,94743.45
2018-05-07T12:35:12.091Z,94741.64
2018-05-07T12:37:38.716Z,94740.98
2018-05-07T12:40:05.339Z,94739.38
2018-05-07T12:42:32.164Z,94738.16
2018-05-07T12:44:58.808Z,94736.06
2018-05-07T12:47:28.359Z,94728.70
2018-05-07T12:49:54.993Z,94726.59
2018-05-07T12:52:21.751Z,94724.13
2018-05-07T12:54:48.280Z,94720.22
2018-05-07T12:57:14.953Z,94718.72
2018-05-07T12:59:41.610Z,94718.31
2018-05-07T13:02:08.210Z,94716.42
2018-05-07T13:04:34.924Z,94711.80
2018-05-07T13:07:01.522Z,94715.73
2018-05-07T13:09:28.162Z,94722.36
2018-05-07T13:11:54.869Z,94719.48
2018-05-07T13:14:22.844Z,94717.08
2018-05-07T13:16:48.332Z,94716.46
2018-05-07T13:19:18.395Z,94711.20
2018-05-07T13:21:45.000Z,94704.66
2018-05-07T13:24:11.719Z,94702.94
2018-05-07T13:26:38.314Z,94702.28
2018-05-07T13:29:04.988Z,94701.73
2018-05-07T13:31:31.597Z,94698.00
2018-05-07T13:33:58.262Z,94692.75
2018-05-07T13:36:24.861Z,94688.07
2018-05-07T13:38:51.534Z,94691.48
2018-05-07T13:41:18.167Z,94684.15
2018-05-07T13:43:44.775Z,94685.21
2018-05-07T13:46:11.455Z,94675.34
2018-05-07T13:48:38.092Z,94667.80
2018-05-07T13:51:04.739Z,94664.19
2018-05-07T13:53:31.401Z,94663.19
2018-05-07T13:55:58.000Z,94659.73
2018-05-07T13:58:24.713Z,94653.00
2018-05-07T14:00:51.355Z,94651.63
2018-05-07T14:03:17.966Z,94649.45
2018-05-07T14:05:44.685Z,94649.83
2018-05-07T14:08:11.281Z,94648.23
2018-05-07T14:10:37.917Z,94636.68
2018-05-07T14:13:04.550Z,94634.69
2018-05-07T14:15:31.223Z,94628.56
2018-05-07T14:17:57.819Z,94627.70
2018-05-07T14:20:24.529Z,94626.90
2018-05-07T14:22:51.160Z,94622.09
2018-05-07T14:25:17.853Z,94621.47
2018-05-07T14:27:44.543Z,94620.89
2018-05-07T14:30:11.140Z,94620.66
2018-05-07T14:32:37.784Z,94624.89
2018-05-07T14:35:04.451Z,94626.71
2018-05-07T14:37:31.063Z,94630.50
2018-05-07T14:39:57.701Z,94633.42
2018-05-07T14:42:24.415Z,94627.50
2018-05-07T14:44:51.058Z,94627.67
2018-05-07T14:47:17.751Z,94623.81
2018-05-07T14:49:44.390Z,94619.66
2018-05-07T14:52:11.063Z,94623.19
2018-05-07T14:54:37.724Z,94619.02
2018-05-07T14:57:04.313Z,94620.49
2018-05-07T14:59:30.951Z,94615.86
2018-05-07T15:01:57.579Z,94616.45
2018-05-07T15:04:24.253Z,94615.95
2018-05-07T15:06:50.885Z,94615.43
2018-05-07T15:09:17.753Z,94615.43
2018-05-07T15:11:44.355Z,94613.72
2018-05-07T15:14:11.026Z,94614.19
2018-05-07T15:16:37.633Z,94609.73
2018-05-07T15:19:04.347Z,94611.58
2018-05-07T15:21:31.045Z,94606.00
2018-05-07T15:23:57.721Z,94604.30
2018-05-07T15:26:24.395Z,94606.72
2018-05-07T15:28:51.031Z,94604.37
2018-05-07T15:31:17.677Z,94604.12
2018-05-07T15:33:44.324Z,94599.58
2018-05-07T15:36:11.041Z,94599.69
2018-05-07T15:38:37.715Z,94595.23
2018-05-07T15:41:04.353Z,94594.59
2018-05-07T15:43:30.987Z,94589.63
2018-05-07T15:45:57.613Z,94594.28
2018-05-07T15:48:24.258Z,94589.41
2018-05-07T15:50:50.888Z,94592.08
2018-05-07T15:53:17.549Z,94594.36
2018-05-07T15:55:44.214Z,94592.38
2018-05-07T15:58:10.807Z,94593.27
2018-05-07T16:00:37.475Z,94582.92
2018-05-07T16:03:04.175Z,94582.39
2018-05-07T16:05:30.798Z,94588.52
2018-05-07T16:07:57.434Z,94582.27
2018-05-07T16:10:24.131Z,94582.64
2018-05-07T16:12:50.826Z,94580.80
2018-05-07T16:15:17.527Z,94582.36
2018-05-07T16:17:44.097Z,94581.91
2018-05-07T16:20:10.773Z,94577.78
2018-05-07T16:22:37.441Z,94581.20
2018-05-07T16:25:04.098Z,94579.02
2018-05-07T16:27:30.772Z,94582.50
2018-05-07T16:29:57.411Z,94588.00
2018-05-07T16:32:24.083Z,94587.12
2018-05-07T16:34:53.609Z,94585.25
2018-05-07T16:37:20.334Z,94592.71
2018-05-07T16:39:46.961Z,94594.10
2018-05-07T16:42:13.611Z,94592.07
2018-05-07T16:44:40.292Z,94602.11
2018-05-07T16:47:06.949Z,94595.50
2018-05-07T16:49:33.610Z,94600.08
2018-05-07T16:52:00.245Z,94602.11
2018-05-07T16:54:26.931Z,94600.44
2018-05-07T16:56:53.542Z,94598.41
2018-05-07T16:59:20.202Z,94612.15
2018-05-07T17:01:46.844Z,94601.93
2018-05-07T17:04:13.516Z,94600.52
2018-05-07T17:06:40.110Z,94607.31
2018-05-07T17:09:06.790Z,94615.99
2018-05-07T17:11:33.458Z,94611.58
2018-05-07T17:14:00.088Z,94611.45
2018-05-07T17:16:26.731Z,94613.30
2018-05-07T17:18:53.371Z,94612.70
2018-05-07T17:21:20.002Z,94617.37
2018-05-07T17:23:46.671Z,94624.05
2018-05-07T17:26:13.283Z,94619.23
2018-05-07T17:28:39.932Z,94622.88
2018-05-07T17:31:06.639Z,94624.22
2018-05-07T17:33:33.350Z,94635.92
2018-05-07T17:35:59.926Z,94642.35
2018-05-07T17:38:26.601Z,94635.92
2018-05-07T17:40:53.334Z,94636.88
2018-05-07T17:43:19.935Z,94642.55
2018-05-07T17:45:46.605Z,94644.14
2018-05-07T17:48:13.324Z,94647.47
2018-05-07T17:50:39.879Z,94644.84
2018-05-07T17:53:06.540Z,94649.39
2018-05-07T17:55:33.186Z,94650.09
2018-05-07T17:57:59.823Z,94656.45
2018-05-07T18:00:26.458Z,94658.48
2018-05-07T18:02:53.126Z,94661.64
2018-05-07T18:05:19.766Z,94669.97
2018-05-07T18:07:46.427Z,94666.84
2018-05-07T18:10:13.117Z,94662.66
2018-05-07T18:12:39.747Z,94658.94
2018-05-07T18:15:06.356Z,94666.34
2018-05-07T18:17:32.987Z,94665.37
2018-05-07T18:19:59.692Z,94660.84
2018-05-07T18:22:28.945Z,94658.29
2018-05-07T18:24:55.541Z,94658.32
2018-05-07T18:27:22.207Z,94658.37
2018-05-07T18:29:48.849Z,94658.02
2018-05-07T18:32:15.521Z,94664.11
2018-05-07T18:34:42.194Z,94668.91
2018-05-07T18:37:08.831Z,94661.70
2018-05-07T18:39:35.474Z,94667.31
2018-05-07T18:42:02.134Z,94666.71
2018-05-07T18:44:28.779Z,94662.28
2018-05-07T18:46:55.450Z,94662.11
2018-05-07T18:49:22.133Z,94659.77
2018-05-07T18:51:48.858Z,94661.97
2018-05-07T18:54:15.527Z,94668.11
2018-05-07T18:56:42.138Z,94668.05
2018-05-07T18:59:08.845Z,94672.08
2018-05-07T19:01:35.468Z,94672.02
2018-05-07T19:04:02.147Z,94674.86
2018-05-07T19:06:28.763Z,94669.73
2018-05-07T19:08:55.427Z,94672.98
2018-05-07T19:11:22.032Z,94670.52
2018-05-07T19:13:48.731Z,94675.95
2018-05-07T19:16:15.338Z,94674.11
2018-05-07T19:18:42.107Z,94672.86
2018-05-07T19:21:08.773Z,94677.34
2018-05-07T19:23:35.417Z,94674.89
2018-05-07T19:26:02.056Z,94671.27
2018-05-07T19:28:28.723Z,94676.88
2018-05-07T19:30:55.497Z,94674.16
2018-05-07T19:33:22.131Z,94670.05
2018-05-07T19:35:48.813Z,94672.02
2018-05-07T19:38:15.440Z,94664.58
2018-05-07T19:40:42.082Z,94664.38
2018-05-07T19:43:08.709Z,94663.02
2018-05-07T19:45:35.424Z,94666.18
2018-05-07T19:48:02.058Z,94664.41
2018-05-07T19:50:28.745Z,94665.13
2018-05-07T19:52:55.342Z,94660.53
2018-05-07T19:55:22.046Z,94664.91
2018-05-07T19:57:48.683Z,94668.12
2018-05-07T20:00:15.358Z,94665.45
2018-05-07T20:02:42.002Z,94665.77
2018-05-07T20:05:08.668Z,94659.84
2018-05-07T20:07:35.358Z,94660.10
2018-05-07T20:10:02.011Z,94656.95
2018-05-07T20:12:28.679Z,94654.80
2018-05-07T20:14:55.316Z,94654.17
2018-05-07T20:17:22.027Z,94642.30
2018-05-07T20:19:48.678Z,94645.66
2018-05-07T20:22:15.345Z,94633.82
2018-05-07T20:24:41.991Z,94640.05
2018-05-07T20:27:08.656Z,94632.84
2018-05-07T20:29:35.278Z,94643.75
2018-05-07T20:32:01.920Z,94643.47
2018-05-07T20:34:28.548Z,94639.47
2018-05-07T20:36:55.226Z,94638.40
2018-05-07T20:39:21.888Z,94640.80
2018-05-07T20:41:48.534Z,94640.34
2018-05-07T20:44:15.217Z,94644.13
2018-05-07T20:46:43.075Z,94646.09
2018-05-07T20:49:08.531Z,94642.25
2018-05-07T20:51:35.226Z,94640.48
2018-05-07T20:54:01.821Z,94640.92
2018-05-07T20:56:28.454Z,94635.05
2018-05-07T20:58:55.099Z,94640.23
2018-05-07T21:01:21.812Z,94638.02
2018-05-07T21:03:48.450Z,94636.84
2018-05-07T21:06:15.107Z,94635.56
2018-05-07T21:08:41.752Z,94634.75
2018-05-07T21:11:08.385Z,94630.91
2018-05-07T21:13:35.106Z,94632.20
2018-05-07T21:16:01.702Z,94630.88
2018-05-07T21:18:28.372Z,94630.19
2018-05-07T21:20:55.026Z,94629.52
2018-05-07T21:23:21.705Z,94629.95
2018-05-07T21:25:48.377Z,94638.92
2018-05-07T21:28:15.013Z,94633.31
2018-05-07T21:30:41.675Z,94633.11
2018-05-07T21:33:08.322Z,94632.84
2018-05-07T21:35:34.997Z,94627.23
2018-05-07T21:38:01.672Z,94625.84
2018-05-07T21:40:28.346Z,94629.64
2018-05-07T21:42:56.361Z,94619.59
2018-05-07T21:45:21.660Z,94626.66
2018-05-07T21:47:48.293Z,94627.67
2018-05-07T21:50:15.004Z,94625.53
2018-05-07T21:52:41.643Z,94624.66
2018-05-07T21:55:08.273Z,94623.65
2018-05-07T21:57:34.953Z,94620.61
2018-05-07T22:00:01.672Z,94621.88
2018-05-07T22:02:28.306Z,94617.28
2018-05-07T22:04:54.943Z,94614.94
2018-05-07T22:07:21.626Z,94618.98
2018-05-07T22:09:48.304Z,94613.84
2018-05-07T22:12:15.061Z,94608.34
2018-05-07T22:14:41.610Z,94611.23
2018-05-07T22:17:08.274Z,94613.95
2018-05-07T22:19:34.920Z,94614.10
2018-05-07T22:22:01.570Z,94615.86
2018-05-07T22:24:28.198Z,94615.98
2018-05-07T22:26:54.857Z,94609.94
2018-05-07T22:29:21.620Z,94604.55
2018-05-07T22:31:48.238Z,94606.06
2018-05-07T22:34:14.875Z,94602.59
2018-05-07T22:36:41.507Z,94600.16
2018-05-07T22:39:08.151Z,94599.20
2018-05-07T22:41:34.773Z,94595.16
2018-05-07T22:44:01.436Z,94582.86
2018-05-07T22:46:28.502Z,94583.30
2018-05-07T22:48:55.209Z,94584.56
2018-05-07T22:51:21.781Z,94585.70
2018-05-07T22:53:48.459Z,94581.33
2018-05-07T22:56:15.098Z,94585.58
2018-05-07T22:58:41.691Z,94578.38
2018-05-07T23:01:08.337Z,94577.22
2018-05-07T23:03:34.977Z,94574.91
2018-05-07T23:06:01.613Z,94571.88
2018-05-07T23:08:28.276Z,94569.23
2018-05-07T23:10:54.900Z,94572.30
2018-05-07T23:13:21.552Z,94567.13
2018-05-07T23:15:48.201Z,94567.33
2018-05-07T23:18:14.827Z,94564.50
2018-05-07T23:20:41.435Z,94562.09
2018-05-07T23:23:08.104Z,94564.98
2018-05-07T23:25:34.742Z,94554.41
2018-05-07T23:28:01.339Z,94549.92
2018-05-07T23:30:27.983Z,94555.27
2018-05-07T23:32:54.615Z,94556.66
2018-05-07T23:35:21.256Z,94549.05
2018-05-07T23:37:47.885Z,94551.37
2018-05-07T23:40:14.554Z,94552.32
2018-05-07T23:42:41.194Z,94552.70
2018-05-07T23:45:07.839Z,94558.80
2018-05-07T23:47:34.432Z,94556.23
2018-05-07T23:50:01.071Z,94553.71
2018-05-07T23:52:27.748Z,94553.28
2018-05-07T23:54:54.386Z,94548.97
2018-05-07T23:57:20.990Z,94546.83
2018-05-07T23:59:47.655Z,94541.73
